Time;durP1;ratioP1;P1;durP2;ratioP2;P2;SDS_P1;SDS_P2;PMS_P1;PMS_P2;Temp;Humidity;BMP_temperature;BMP_pressure;BME280_temperature;BME280_humidity;BME280_pressure;Samples;Min_cycle;Max_cycle;Signal;HPM_P1;HPM_P2
2023/10/27 00:01:05;;;;;;;10.80;3.90;;;;;;;20.46;59.92;99027.50;109952;1274;21956;-58
2023/10/27 00:03:31;;;;;;;17.80;4.40;;;;;;;20.44;60.08;99038.40;109942;1280;21913;-58
2023/10/27 00:05:57;;;;;;;13.60;3.50;;;;;;;20.41;60.17;99046.93;109954;1279;21952;-70
2023/10/27 00:08:22;;;;;;;11.30;3.20;;;;;;;20.42;60.20;99051.15;109969;1277;21923;-70
2023/10/27 00:10:48;;;;;;;9.10;3.40;;;;;;;20.43;60.31;99046.78;109944;1280;22035;-61
2023/10/27 00:13:13;;;;;;;15.70;3.80;;;;;;;20.45;60.50;99048.76;109958;1273;21939;-62
2023/10/27 00:15:39;;;;;;;17.40;3.80;;;;;;;20.46;60.62;99052.98;109926;1286;21983;-63
2023/10/27 00:18:05;;;;;;;8.60;2.90;;;;;;;20.46;60.62;99048.91;109950;1286;21931;-61
2023/10/27 00:20:31;;;;;;;9.30;3.80;;;;;;;20.41;60.41;99044.27;109967;1286;22021;-61
2023/10/27 00:22:56;;;;;;;10.40;3.60;;;;;;;20.38;60.48;99042.58;109975;1280;21933;-62
2023/10/27 00:25:23;;;;;;;8.80;3.60;;;;;;;20.39;60.78;99037.48;109954;1286;21944;-61
2023/10/27 00:27:48;;;;;;;10.90;3.30;;;;;;;20.40;60.94;99039.52;109965;1277;21938;-61
2023/10/27 00:30:14;;;;;;;10.40;3.60;;;;;;;20.41;61.03;99037.33;109971;1280;21923;-63
2023/10/27 00:32:40;;;;;;;10.90;3.40;;;;;;;20.43;61.11;99039.83;109949;1274;21945;-61
2023/10/27 00:35:06;;;;;;;9.00;3.20;;;;;;;20.47;61.25;99039.39;109949;1286;21913;-61
2023/10/27 00:37:35;;;;;;;11.80;4.10;;;;;;;20.50;61.27;99045.02;109969;1286;21936;-64
2023/10/27 00:40:01;;;;;;;14.90;3.60;;;;;;;20.55;61.22;99046.30;109971;1279;21936;-60
2023/10/27 00:42:27;;;;;;;10.80;3.00;;;;;;;20.58;61.23;99049.08;109955;1286;21939;-63
2023/10/27 00:44:52;;;;;;;12.70;3.40;;;;;;;20.61;61.14;99052.98;109953;1279;21953;-62
2023/10/27 00:47:18;;;;;;;9.80;4.10;;;;;;;20.61;61.08;99050.44;109956;1286;22405;-60
2023/10/27 00:49:44;;;;;;;11.40;3.40;;;;;;;20.62;61.12;99051.11;109953;1280;21889;-62
2023/10/27 00:52:11;;;;;;;9.80;3.10;;;;;;;20.65;61.13;99049.38;109966;1286;21866;-61
2023/10/27 00:54:37;;;;;;;10.60;2.80;;;;;;;20.65;60.77;99048.49;109954;1280;22030;-63
2023/10/27 00:57:02;;;;;;;13.30;3.50;;;;;;;20.62;60.80;99044.46;109971;1273;21931;-62
2023/10/27 00:59:28;;;;;;;10.50;3.30;;;;;;;20.60;60.60;99043.39;109935;1276;21936;-63
2023/10/27 01:01:54;;;;;;;10.90;3.40;;;;;;;20.56;60.41;99047.08;109968;1276;21904;-62
2023/10/27 01:04:19;;;;;;;14.10;3.00;;;;;;;20.52;60.24;99052.55;109964;1286;21992;-63
2023/10/27 01:06:45;;;;;;;9.00;2.90;;;;;;;20.47;60.17;99059.00;109943;1286;21908;-63
2023/10/27 01:09:11;;;;;;;9.30;3.30;;;;;;;20.43;60.17;99060.73;109897;1283;21925;-60
2023/10/27 01:11:36;;;;;;;9.30;3.10;;;;;;;20.37;59.92;99063.97;109963;1286;21876;-63
2023/10/27 01:14:02;;;;;;;11.00;2.90;;;;;;;20.30;59.79;99062.86;109936;1279;21899;-62
2023/10/27 01:16:28;;;;;;;9.20;2.80;;;;;;;20.24;59.78;99062.81;109956;1286;22020;-60
2023/10/27 01:18:53;;;;;;;11.10;3.30;;;;;;;20.18;59.73;99065.03;109939;1285;21934;-63
2023/10/27 01:21:19;;;;;;;9.70;2.60;;;;;;;20.11;59.71;99063.93;109912;1283;21968;-64
2023/10/27 01:23:45;;;;;;;10.80;3.20;;;;;;;20.05;59.63;99065.23;109932;1276;21915;-60
2023/10/27 01:26:10;;;;;;;8.40;2.80;;;;;;;19.99;59.61;99065.65;109933;1279;21965;-62
2023/10/27 01:28:36;;;;;;;8.10;2.80;;;;;;;19.94;59.62;99070.11;109921;1286;22014;-61
2023/10/27 01:31:01;;;;;;;9.60;2.80;;;;;;;19.91;59.53;99066.08;109936;1280;21957;-64
2023/10/27 01:33:27;;;;;;;9.50;3.30;;;;;;;19.87;59.41;99061.70;109926;1286;21988;-60
2023/10/27 01:35:53;;;;;;;11.20;3.10;;;;;;;19.81;59.34;99064.63;109914;1286;22001;-61
2023/10/27 01:38:19;;;;;;;10.50;3.10;;;;;;;19.73;59.33;99062.84;109886;1285;21949;-61
2023/10/27 01:40:44;;;;;;;10.40;3.00;;;;;;;19.65;59.17;99061.81;109900;1282;22007;-63
2023/10/27 01:43:10;;;;;;;9.50;2.80;;;;;;;19.59;59.18;99062.05;109917;1276;21939;-60
2023/10/27 01:45:35;;;;;;;13.10;2.90;;;;;;;19.56;59.05;99067.63;109894;1279;21944;-64
2023/10/27 01:48:01;;;;;;;9.40;2.30;;;;;;;19.53;59.03;99074.27;109904;1276;21968;-61
2023/10/27 01:50:26;;;;;;;9.40;2.50;;;;;;;19.47;58.96;99084.61;109893;1287;21912;-63
2023/10/27 01:52:52;;;;;;;9.50;3.00;;;;;;;19.41;58.89;99087.66;109924;1287;22002;-63
2023/10/27 01:55:18;;;;;;;9.80;2.70;;;;;;;19.35;58.88;99089.53;109905;1287;21933;-63
2023/10/27 01:57:44;;;;;;;9.80;2.70;;;;;;;19.31;58.91;99089.80;109890;1287;21979;-62
2023/10/27 02:00:10;;;;;;;11.20;2.70;;;;;;;19.28;58.92;99092.48;109952;1286;21943;-63
2023/10/27 02:02:36;;;;;;;9.20;2.50;;;;;;;19.24;58.87;99095.40;109962;1286;21946;-63
2023/10/27 02:05:03;;;;;;;7.20;2.50;;;;;;;19.21;58.88;99097.42;109965;1283;21859;-60
2023/10/27 02:07:29;;;;;;;9.10;2.70;;;;;;;19.18;58.90;99094.98;109946;1276;21982;-60
2023/10/27 02:09:59;;;;;;;7.20;2.50;;;;;;;19.15;58.89;99095.48;109965;1279;21930;-60
2023/10/27 02:12:27;;;;;;;8.40;2.80;;;;;;;19.12;58.85;99093.20;109942;1286;22115;-63
2023/10/27 02:14:53;;;;;;;6.00;2.60;;;;;;;19.07;58.68;99089.98;109955;1275;21922;-60
2023/10/27 02:17:19;;;;;;;10.20;2.50;;;;;;;19.02;58.70;99091.92;109942;1286;21960;-61
2023/10/27 02:19:45;;;;;;;9.10;2.60;;;;;;;18.97;58.67;99091.95;109949;1273;21944;-63
2023/10/27 02:22:10;;;;;;;9.30;3.20;;;;;;;18.91;58.58;99093.39;109950;1286;21837;-61
2023/10/27 02:24:37;;;;;;;11.10;2.50;;;;;;;18.84;58.61;99091.85;109956;1286;21959;-63
2023/10/27 02:27:03;;;;;;;9.40;2.60;;;;;;;18.80;58.62;99089.67;109963;1279;21848;-64
2023/10/27 02:29:29;;;;;;;9.30;2.90;;;;;;;18.75;58.57;99091.61;109958;1279;21967;-61
2023/10/27 02:31:54;;;;;;;6.90;2.70;;;;;;;18.71;58.57;99093.98;109952;1276;21942;-63
2023/10/27 02:34:20;;;;;;;5.80;2.70;;;;;;;18.69;58.69;99099.95;109902;1286;21967;-60
2023/10/27 02:36:45;;;;;;;13.90;2.90;;;;;;;18.65;58.58;99105.04;109911;1279;21855;-63
2023/10/27 02:39:11;;;;;;;7.40;2.40;;;;;;;18.62;58.67;99103.30;109905;1276;21947;-63
2023/10/27 02:41:36;;;;;;;7.40;2.30;;;;;;;18.60;58.68;99099.88;109915;1287;21913;-62
2023/10/27 02:44:03;;;;;;;4.90;1.80;;;;;;;18.59;58.74;99091.58;109905;1286;21980;-61
2023/10/27 02:46:29;;;;;;;9.00;2.40;;;;;;;18.58;58.82;99085.38;109930;1286;21963;-61
2023/10/27 02:48:55;;;;;;;5.60;2.10;;;;;;;18.56;58.83;99079.30;109916;1286;21956;-63
2023/10/27 02:51:21;;;;;;;9.20;3.00;;;;;;;18.55;58.83;99073.35;109913;1286;22006;-60
2023/10/27 02:53:47;;;;;;;7.30;2.10;;;;;;;18.54;58.81;99065.08;109920;1286;21955;-60
2023/10/27 02:56:13;;;;;;;5.10;2.10;;;;;;;18.53;58.68;99055.23;109935;1283;21945;-60
2023/10/27 02:58:38;;;;;;;5.90;2.20;;;;;;;18.52;58.72;99049.95;109924;1280;22492;-60
2023/10/27 03:01:09;;;;;;;7.60;2.30;;;;;;;18.52;58.81;99049.05;109938;1286;21920;-63
2023/10/27 03:03:36;;;;;;;9.60;2.60;;;;;;;18.51;58.80;99044.83;109937;1282;21928;-61
2023/10/27 03:06:02;;;;;;;6.30;2.20;;;;;;;18.50;58.75;99047.08;109924;1286;21958;-63
2023/10/27 03:08:28;;;;;;;5.10;2.00;;;;;;;18.47;58.74;99059.86;109939;1279;21865;-64
2023/10/27 03:10:54;;;;;;;6.50;2.00;;;;;;;18.48;58.76;99069.91;109926;1286;21953;-64
2023/10/27 03:13:19;;;;;;;6.70;2.30;;;;;;;18.47;58.74;99078.34;109928;1283;21978;-60
2023/10/27 03:15:46;;;;;;;6.40;2.20;;;;;;;18.48;58.81;99087.50;109927;1286;21952;-63
2023/10/27 03:18:12;;;;;;;6.20;1.90;;;;;;;18.48;58.75;99090.19;109913;1282;22004;-60
2023/10/27 03:20:38;;;;;;;5.60;1.90;;;;;;;18.48;58.86;99091.60;109935;1284;21951;-60
2023/10/27 03:23:03;;;;;;;10.70;2.10;;;;;;;18.49;58.98;99097.19;109925;1284;21950;-63
2023/10/27 03:25:29;;;;;;;6.40;1.70;;;;;;;18.51;59.07;99100.45;109906;1286;21873;-62
2023/10/27 03:27:54;;;;;;;5.40;1.60;;;;;;;18.51;58.93;99107.36;109940;1286;21891;-63
2023/10/27 03:30:21;;;;;;;6.60;2.00;;;;;;;18.50;58.84;99112.95;109945;1273;21946;-63
2023/10/27 03:32:48;;;;;;;7.80;2.00;;;;;;;18.47;58.75;99115.14;109939;1283;22005;-60
2023/10/27 03:35:14;;;;;;;8.00;2.10;;;;;;;18.46;58.75;99107.75;109943;1276;21955;-61
2023/10/27 03:37:40;;;;;;;7.90;2.90;;;;;;;18.46;58.86;99102.58;109851;1277;22017;-61
2023/10/27 03:40:06;;;;;;;6.90;1.90;;;;;;;18.46;58.83;99101.14;109906;1278;22405;-61
2023/10/27 03:42:32;;;;;;;6.30;1.50;;;;;;;18.46;58.63;99104.31;109904;1280;21945;-64
2023/10/27 03:44:57;;;;;;;7.60;2.20;;;;;;;18.44;58.54;99110.29;109902;1283;21953;-63
2023/10/27 03:47:23;;;;;;;6.70;1.80;;;;;;;18.41;58.51;99112.27;109887;1281;21860;-61
2023/10/27 03:49:48;;;;;;;6.20;1.80;;;;;;;18.38;58.45;99113.56;109902;1279;21930;-61
2023/10/27 03:52:15;;;;;;;5.80;1.80;;;;;;;18.32;58.34;99116.44;109135;1287;1002290;-60
2023/10/27 03:54:41;;;;;;;10.40;1.80;;;;;;;18.28;58.52;99119.13;109910;1287;21917;-60
2023/10/27 03:57:07;;;;;;;15.80;1.80;;;;;;;18.33;59.09;99119.23;109900;1276;21959;-62
2023/10/27 03:59:32;;;;;;;5.60;1.60;;;;;;;18.40;59.06;99115.88;109903;1287;21957;-61
2023/10/27 04:01:58;;;;;;;4.40;1.80;;;;;;;18.40;58.72;99117.28;109904;1287;21935;-63
2023/10/27 04:04:24;;;;;;;5.30;2.50;;;;;;;18.37;58.57;99115.05;109922;1287;21952;-63
2023/10/27 04:06:50;;;;;;;7.70;2.70;;;;;;;18.32;58.52;99118.19;109911;1287;22001;-63
2023/10/27 04:09:15;;;;;;;9.00;3.30;;;;;;;18.28;58.39;99115.75;109882;1283;21954;-61
2023/10/27 04:11:42;;;;;;;8.80;2.20;;;;;;;18.23;58.23;99119.08;109920;1287;21941;-63
2023/10/27 04:14:07;;;;;;;11.00;3.60;;;;;;;18.17;58.03;99126.92;109912;1279;21854;-63
2023/10/27 04:16:34;;;;;;;4.50;2.00;;;;;;;18.10;58.02;99126.30;109911;1285;21923;-60
2023/10/27 04:19:00;;;;;;;6.20;2.10;;;;;;;18.04;58.00;99124.96;109900;1287;21959;-62
2023/10/27 04:21:26;;;;;;;4.40;1.60;;;;;;;17.99;58.10;99126.98;109900;1287;21930;-62
2023/10/27 04:23:52;;;;;;;9.00;1.70;;;;;;;17.95;58.06;99127.92;109920;1276;22003;-60
2023/10/27 04:26:17;;;;;;;8.70;1.80;;;;;;;17.90;58.19;99127.55;109901;1287;21916;-62
2023/10/27 04:28:43;;;;;;;6.00;2.10;;;;;;;17.86;58.27;99132.08;109859;1282;22015;-62
2023/10/27 04:31:09;;;;;;;8.40;2.00;;;;;;;17.83;58.25;99131.54;109913;1287;21859;-60
2023/10/27 04:33:38;;;;;;;5.10;1.60;;;;;;;17.82;58.48;99136.18;109892;1283;22003;-61
2023/10/27 04:36:07;;;;;;;5.80;1.60;;;;;;;17.83;58.53;99137.55;109898;1276;21977;-62
2023/10/27 04:38:32;;;;;;;5.70;1.90;;;;;;;17.82;58.45;99144.38;109155;1285;1002284;-60
2023/10/27 04:40:58;;;;;;;7.10;2.00;;;;;;;17.77;58.51;99149.48;109919;1276;21940;-60
2023/10/27 04:43:24;;;;;;;7.30;2.00;;;;;;;17.74;58.55;99152.87;109915;1284;22026;-60
2023/10/27 04:45:49;;;;;;;6.30;1.70;;;;;;;17.72;58.68;99152.23;109125;1281;1002345;-62
2023/10/27 04:48:15;;;;;;;5.00;1.80;;;;;;;17.72;58.77;99153.34;109907;1287;21956;-60
2023/10/27 04:50:41;;;;;;;6.40;2.00;;;;;;;17.70;58.93;99158.22;109937;1286;21999;-60
2023/10/27 04:53:07;;;;;;;6.30;2.20;;;;;;;17.68;59.05;99163.97;109911;1283;21959;-62
2023/10/27 04:55:52;;;;;;;5.60;2.20;;;;;;;17.69;59.26;99165.01;109935;1276;21938;-60
2023/10/27 04:58:18;;;;;;;7.50;1.70;;;;;;;17.71;59.41;99170.92;109945;1286;21958;-60
2023/10/27 05:00:44;;;;;;;5.20;1.90;;;;;;;17.76;59.39;99170.10;109970;1275;22007;-60
2023/10/27 05:03:09;;;;;;;5.90;2.30;;;;;;;17.79;59.42;99168.33;109956;1286;21871;-60
2023/10/27 05:05:35;;;;;;;4.10;1.60;;;;;;;17.81;59.49;99173.50;109957;1283;22012;-60
2023/10/27 05:08:00;;;;;;;5.80;1.90;;;;;;;17.86;59.72;99175.39;109897;1286;21948;-60
2023/10/27 05:10:27;;;;;;;6.10;1.70;;;;;;;17.92;59.93;99182.10;109949;1286;21856;-63
2023/10/27 05:12:53;;;;;;;6.60;1.90;;;;;;;18.00;60.09;99182.71;109951;1286;21930;-60
2023/10/27 05:15:19;;;;;;;6.60;1.90;;;;;;;18.06;60.13;99183.02;109957;1286;21971;-60
2023/10/27 05:17:46;;;;;;;5.20;1.50;;;;;;;18.12;60.25;99188.65;109973;1275;22014;-63
2023/10/27 05:20:12;;;;;;;4.70;2.00;;;;;;;18.20;60.50;99187.48;109951;1273;21948;-64
2023/10/27 05:22:37;;;;;;;4.60;1.90;;;;;;;18.27;60.56;99186.52;109975;1286;22017;-60
2023/10/27 05:25:06;;;;;;;5.30;1.60;;;;;;;18.35;60.54;99188.65;109955;1279;21973;-59
2023/10/27 05:27:35;;;;;;;5.70;1.60;;;;;;;18.45;60.52;99191.99;109951;1279;21997;-60
2023/10/27 05:30:04;;;;;;;3.90;1.50;;;;;;;18.53;60.56;99191.11;109954;1286;21947;-64
2023/10/27 05:32:32;;;;;;;6.70;2.20;;;;;;;18.61;60.59;99193.22;109967;1286;21936;-60
2023/10/27 05:34:58;;;;;;;7.20;1.80;;;;;;;18.70;60.64;99196.55;109959;1279;21946;-60
2023/10/27 05:37:24;;;;;;;4.80;1.60;;;;;;;18.78;60.49;99197.65;109953;1283;21910;-59
2023/10/27 05:39:49;;;;;;;6.50;1.70;;;;;;;18.84;60.50;99196.16;109955;1286;21937;-65
2023/10/27 05:42:15;;;;;;;7.10;1.70;;;;;;;18.90;60.43;99196.50;109957;1279;21925;-62
2023/10/27 05:44:41;;;;;;;7.70;1.70;;;;;;;18.96;60.32;99195.82;109962;1273;21950;-60
2023/10/27 05:47:07;;;;;;;6.40;2.00;;;;;;;19.02;60.33;99193.27;109955;1279;21926;-66
2023/10/27 05:49:32;;;;;;;7.90;2.70;;;;;;;19.08;60.37;99191.60;109964;1273;22019;-59
2023/10/27 05:52:02;;;;;;;5.70;2.20;;;;;;;19.14;60.39;99184.09;109954;1278;21790;-65
2023/10/27 05:54:29;;;;;;;7.30;1.70;;;;;;;19.23;60.38;99181.92;109951;1280;22306;-59
2023/10/27 05:56:55;;;;;;;4.00;1.90;;;;;;;19.30;60.38;99181.08;109967;1286;21868;-66
2023/10/27 05:59:20;;;;;;;8.70;2.30;;;;;;;19.39;60.42;99177.98;109971;1276;21973;-66
2023/10/27 06:01:48;;;;;;;7.10;1.80;;;;;;;19.49;60.84;99175.73;109921;1286;21954;-66
2023/10/27 06:04:15;;;;;;;10.20;2.30;;;;;;;19.61;61.30;99176.55;109960;1286;21935;-66
2023/10/27 06:06:41;;;;;;;10.90;2.90;;;;;;;19.74;61.44;99179.73;109945;1286;21942;-60
2023/10/27 06:09:06;;;;;;;10.20;3.60;;;;;;;19.87;61.32;99180.27;109951;1279;21930;-60
2023/10/27 06:11:32;;;;;;;7.60;3.40;;;;;;;19.99;61.22;99179.95;109942;1286;21946;-59
2023/10/27 06:13:57;;;;;;;21.50;12.30;;;;;;;20.10;61.04;99182.02;109949;1279;21854;-60
2023/10/27 06:16:24;;;;;;;16.10;10.10;;;;;;;20.20;60.97;99183.64;109965;1286;21884;-59
2023/10/27 06:18:52;;;;;;;9.40;3.90;;;;;;;20.32;60.98;99185.13;109951;1283;21925;-59
2023/10/27 06:21:18;;;;;;;9.30;3.80;;;;;;;20.45;60.79;99187.59;109899;1279;22463;-61
2023/10/27 06:23:44;;;;;;;7.40;4.40;;;;;;;20.56;60.66;99181.77;109924;1283;21998;-67
2023/10/27 06:26:10;;;;;;;8.80;3.70;;;;;;;20.66;60.65;99182.11;109852;1284;21949;-67
2023/10/27 06:28:36;;;;;;;7.80;3.30;;;;;;;20.77;60.62;99182.56;109937;1276;22000;-67
2023/10/27 06:31:04;;;;;;;13.60;3.80;;;;;;;20.88;60.58;99185.20;109921;1276;21965;-67
2023/10/27 06:33:33;;;;;;;8.70;4.20;;;;;;;20.99;60.71;99187.60;109934;1280;22013;-60
2023/10/27 06:36:02;;;;;;;9.90;4.10;;;;;;;21.08;60.73;99180.67;109942;1279;21965;-67
2023/10/27 06:38:27;;;;;;;8.50;3.80;;;;;;;21.18;60.64;99179.98;109933;1286;21960;-59
2023/10/27 06:40:53;;;;;;;11.00;3.90;;;;;;;21.27;60.54;99178.91;109929;1279;21936;-67
2023/10/27 06:43:19;;;;;;;8.50;3.80;;;;;;;21.35;60.34;99177.20;109903;1275;21984;-60
2023/10/27 06:45:44;;;;;;;8.40;3.10;;;;;;;21.45;60.28;99179.51;109914;1283;21962;-59
2023/10/27 06:48:10;;;;;;;11.10;3.00;;;;;;;21.57;60.22;99185.58;109934;1286;21972;-60
2023/10/27 06:50:36;;;;;;;10.30;2.80;;;;;;;21.68;59.78;99184.71;109930;1279;22001;-60
2023/10/27 06:53:02;;;;;;;7.70;2.10;;;;;;;21.78;59.48;99185.38;109922;1276;21942;-59
2023/10/27 06:55:28;;;;;;;4.70;2.20;;;;;;;21.87;59.33;99187.88;109934;1273;22001;-67
2023/10/27 06:57:53;;;;;;;5.20;1.60;;;;;;;21.97;59.24;99188.17;109931;1273;22030;-59
2023/10/27 07:00:19;;;;;;;7.20;1.90;;;;;;;22.09;58.98;99189.79;109927;1286;22120;-70
2023/10/27 07:02:45;;;;;;;8.40;2.00;;;;;;;22.18;58.53;99193.32;109924;1286;22094;-60
2023/10/27 07:05:13;;;;;;;5.20;1.50;;;;;;;22.28;58.39;99193.98;109931;1279;21955;-59
2023/10/27 07:07:42;;;;;;;7.40;1.60;;;;;;;22.38;58.24;99199.64;109913;1286;22343;-69
2023/10/27 07:10:09;;;;;;;5.10;1.90;;;;;;;22.48;58.42;99200.06;109917;1286;21994;-59
2023/10/27 07:12:34;;;;;;;6.20;2.20;;;;;;;22.58;58.02;99202.14;109945;1276;22005;-60
2023/10/27 07:15:00;;;;;;;6.10;2.40;;;;;;;22.67;57.98;99211.27;109779;1286;22005;-61
2023/10/27 07:17:26;;;;;;;8.30;2.30;;;;;;;22.76;57.58;99217.33;109911;1285;21875;-58
2023/10/27 07:19:51;;;;;;;3.20;1.00;;;;;;;22.83;57.16;99213.70;109872;1286;21917;-59
2023/10/27 07:22:19;;;;;;;2.40;1.00;;;;;;;22.87;56.85;99211.06;109923;1286;22043;-59
2023/10/27 07:24:46;;;;;;;3.90;0.80;;;;;;;22.92;56.55;99212.50;109930;1283;21969;-59
2023/10/27 07:27:11;;;;;;;1.60;0.90;;;;;;;22.93;55.95;99213.10;109935;1286;22403;-59
2023/10/27 07:29:37;;;;;;;3.20;1.20;;;;;;;22.90;55.35;99215.13;109911;1286;22043;-59
2023/10/27 07:32:03;;;;;;;3.50;0.80;;;;;;;22.87;55.18;99219.11;109938;1285;21985;-59
2023/10/27 07:34:29;;;;;;;2.30;0.80;;;;;;;22.86;55.27;99222.40;109915;1283;21873;-59
2023/10/27 07:36:55;;;;;;;2.20;1.10;;;;;;;22.87;55.23;99223.36;109174;1273;1002072;-60
2023/10/27 07:39:22;;;;;;;11.60;1.00;;;;;;;22.89;55.19;99225.40;109934;1286;21962;-59
2023/10/27 07:41:50;;;;;;;8.20;0.70;;;;;;;22.91;55.11;99227.02;109920;1286;22071;-71
2023/10/27 07:44:15;;;;;;;6.30;0.90;;;;;;;22.95;54.96;99228.81;109931;1286;22003;-77
2023/10/27 07:46:41;;;;;;;6.40;1.50;;;;;;;23.01;55.02;99226.21;109928;1286;21916;-58
2023/10/27 07:49:06;;;;;;;7.00;1.40;;;;;;;23.09;54.87;99220.53;109921;1286;21999;-58
2023/10/27 07:51:32;;;;;;;6.40;1.00;;;;;;;23.15;54.32;99223.08;109927;1286;21956;-58
2023/10/27 07:53:58;;;;;;;3.10;1.00;;;;;;;23.19;54.02;99233.13;109924;1279;21972;-74
2023/10/27 07:56:24;;;;;;;3.20;1.20;;;;;;;23.23;54.00;99233.16;109946;1283;22016;-74
2023/10/27 07:58:49;;;;;;;2.60;1.00;;;;;;;23.30;53.88;99227.45;109921;1286;21876;-59
2023/10/27 08:01:15;;;;;;;6.40;1.30;;;;;;;23.37;53.85;99225.23;109910;1286;21944;-59
2023/10/27 08:03:41;;;;;;;2.40;0.90;;;;;;;23.45;53.86;99222.01;109939;1286;22014;-58
2023/10/27 08:06:07;;;;;;;3.10;1.30;;;;;;;23.54;53.38;99226.88;109918;1286;21938;-58
2023/10/27 08:08:34;;;;;;;2.40;0.90;;;;;;;23.60;53.08;99227.59;109911;1286;21955;-72
2023/10/27 08:11:00;;;;;;;2.00;0.90;;;;;;;23.68;52.87;99226.20;109939;1286;21994;-59
2023/10/27 08:13:26;;;;;;;2.60;0.90;;;;;;;23.74;52.93;99228.91;109922;1286;21965;-72
2023/10/27 08:15:52;;;;;;;2.10;0.80;;;;;;;23.84;52.82;99230.02;109923;1283;22008;-59
2023/10/27 08:18:18;;;;;;;3.80;0.90;;;;;;;23.96;53.12;99227.77;109933;1286;21849;-59
2023/10/27 08:20:44;;;;;;;2.10;1.10;;;;;;;24.14;53.29;99221.92;109140;1275;1002491;-73
2023/10/27 08:23:10;;;;;;;1.50;0.90;;;;;;;24.33;52.89;99215.27;109931;1286;21948;-59
2023/10/27 08:25:36;;;;;;;4.90;1.10;;;;;;;24.50;52.68;99211.04;109930;1273;21980;-72
2023/10/27 08:28:06;;;;;;;4.20;0.70;;;;;;;24.69;52.63;99210.98;109931;1286;21989;-59
2023/10/27 08:30:32;;;;;;;7.10;1.10;;;;;;;24.88;52.25;99207.30;109926;1286;21972;-59
2023/10/27 08:32:57;;;;;;;5.00;1.00;;;;;;;25.06;51.81;99206.23;109944;1286;21962;-72
2023/10/27 08:35:23;;;;;;;1.30;0.60;;;;;;;25.25;51.29;99206.89;109957;1286;22063;-72
2023/10/27 08:37:48;;;;;;;1.20;0.60;;;;;;;25.41;50.30;99205.35;109955;1286;21916;-73
2023/10/27 08:40:14;;;;;;;1.80;0.60;;;;;;;25.59;50.46;99197.49;109953;1286;21955;-59
2023/10/27 08:42:42;;;;;;;2.20;0.80;;;;;;;25.80;50.42;99187.23;109968;1273;21903;-72
2023/10/27 08:45:08;;;;;;;1.60;0.60;;;;;;;25.99;49.93;99175.17;109954;1286;22858;-72
2023/10/27 08:47:34;;;;;;;2.20;0.70;;;;;;;26.18;48.95;99174.27;109949;1286;21920;-60
2023/10/27 08:50:01;;;;;;;1.10;0.60;;;;;;;26.34;48.73;99175.09;109939;1286;21865;-59
2023/10/27 08:52:28;;;;;;;3.00;0.70;;;;;;;26.52;48.68;99174.26;109976;1282;21930;-71
2023/10/27 08:54:53;;;;;;;7.10;1.80;;;;;;;26.75;48.36;99170.92;109946;1286;21933;-72
2023/10/27 08:57:19;;;;;;;3.20;1.10;;;;;;;26.99;48.06;99168.41;109965;1286;21911;-60
2023/10/27 08:59:45;;;;;;;1.80;0.80;;;;;;;27.17;47.16;99159.52;109977;1286;21928;-73
2023/10/27 09:02:10;;;;;;;2.70;0.90;;;;;;;27.32;46.59;99154.31;109959;1286;21917;-59
2023/10/27 09:04:45;;;;;;;0.80;0.50;;;;;;;27.41;46.39;99149.52;109951;1286;22024;-60
2023/10/27 09:07:11;;;;;;;1.60;0.70;;;;;;;27.50;46.16;99144.84;109963;1286;21934;-71
2023/10/27 09:09:36;;;;;;;5.40;1.40;;;;;;;27.63;45.66;99145.75;109857;1286;21967;-59
2023/10/27 09:12:02;;;;;;;3.40;0.90;;;;;;;27.70;45.06;99142.29;109969;1286;21964;-73
2023/10/27 09:14:32;;;;;;;1.30;0.60;;;;;;;27.80;45.33;99140.52;109952;1286;21992;-72
2023/10/27 09:17:07;;;;;;;1.80;0.70;;;;;;;27.91;43.93;99139.21;109966;1286;21938;-60
2023/10/27 09:19:33;;;;;;;1.20;0.40;;;;;;;27.95;43.50;99135.23;109956;1286;21960;-74
2023/10/27 09:21:59;;;;;;;1.70;0.50;;;;;;;27.96;42.80;99133.64;109939;1286;21930;-59
2023/10/27 09:24:29;;;;;;;2.10;0.70;;;;;;;27.98;43.53;99132.73;109942;1286;21953;-59
2023/10/27 09:27:02;;;;;;;2.10;0.70;;;;;;;28.03;42.81;99129.34;109959;1286;21870;-71
2023/10/27 09:29:31;;;;;;;3.40;1.00;;;;;;;28.12;42.46;99125.91;109960;1286;21939;-60
2023/10/27 09:31:57;;;;;;;5.30;1.40;;;;;;;28.16;42.19;99115.52;109925;1286;22000;-71
2023/10/27 09:34:26;;;;;;;1.90;0.70;;;;;;;28.23;42.46;99112.60;109956;1286;21934;-71
2023/10/27 09:36:53;;;;;;;1.00;0.50;;;;;;;28.36;42.20;99112.34;109898;1286;21870;-71
2023/10/27 09:39:20;;;;;;;1.00;0.60;;;;;;;28.44;41.51;99110.34;109949;1286;21961;-60
2023/10/27 09:42:07;;;;;;;2.90;0.60;;;;;;;28.50;41.50;99104.35;109961;1286;21955;-72
2023/10/27 09:44:56;;;;;;;2.40;0.40;;;;;;;28.51;40.93;99099.69;109939;1283;21974;-70
2023/10/27 09:47:33;;;;;;;2.00;0.60;;;;;;;28.49;40.62;99096.38;109925;1287;22009;-60
2023/10/27 09:50:06;;;;;;;0.90;0.50;;;;;;;28.43;40.20;99092.70;109910;1287;21931;-73
2023/10/27 09:52:33;;;;;;;3.60;1.00;;;;;;;28.40;39.98;99086.65;109914;1280;21943;-72
2023/10/27 09:54:59;;;;;;;1.40;0.70;;;;;;;28.39;39.57;99081.71;109866;1284;21984;-60
2023/10/27 09:57:26;;;;;;;3.00;1.40;;;;;;;28.38;39.66;99073.05;109787;1286;21965;-60
2023/10/27 09:59:52;;;;;;;1.80;1.00;;;;;;;28.43;39.92;99068.70;109917;1286;21955;-60
2023/10/27 10:02:18;;;;;;;3.00;1.00;;;;;;;28.47;40.05;99067.27;109889;1286;21951;-61
2023/10/27 10:04:53;;;;;;;4.70;1.40;;;;;;;28.50;39.61;99067.55;109865;1279;21932;-73
2023/10/27 10:07:27;;;;;;;4.90;1.30;;;;;;;28.54;39.81;99060.86;109922;1286;22008;-61
2023/10/27 10:09:53;;;;;;;4.40;1.10;;;;;;;28.57;39.73;99056.86;109918;1286;22004;-73
2023/10/27 10:12:18;;;;;;;3.10;1.40;;;;;;;28.56;38.53;99058.92;109897;1276;22316;-60
2023/10/27 10:14:45;;;;;;;2.20;1.10;;;;;;;28.59;38.65;99056.64;109893;1286;21970;-59
2023/10/27 10:17:11;;;;;;;4.60;1.30;;;;;;;28.60;38.79;99053.43;109918;1286;21976;-60
2023/10/27 10:19:48;;;;;;;2.40;1.10;;;;;;;28.63;38.86;99049.50;109938;1286;21973;-71
2023/10/27 10:22:39;;;;;;;3.60;1.20;;;;;;;28.69;38.73;99046.02;109927;1283;21937;-61
2023/10/27 10:25:14;;;;;;;2.50;1.30;;;;;;;28.77;38.53;99042.08;109927;1286;21965;-72
2023/10/27 10:28:08;;;;;;;2.90;1.10;;;;;;;28.88;38.51;99038.13;109931;1286;21924;-60
2023/10/27 10:30:39;;;;;;;2.50;1.00;;;;;;;29.01;38.21;99038.58;109929;1286;22102;-72
2023/10/27 10:33:16;;;;;;;2.70;1.30;;;;;;;29.09;38.32;99037.07;109888;1282;21922;-70
2023/10/27 10:35:42;;;;;;;6.50;1.40;;;;;;;29.25;38.70;99031.05;109914;1286;22041;-60
2023/10/27 10:38:20;;;;;;;3.30;1.00;;;;;;;29.47;38.69;99028.75;109925;1286;21974;-71
2023/10/27 10:40:49;;;;;;;4.70;1.20;;;;;;;29.71;37.92;99022.49;109937;1286;22104;-60
2023/10/27 10:43:25;;;;;;;3.50;0.90;;;;;;;29.84;37.34;99013.68;109910;1287;21920;-70
2023/10/27 10:45:55;;;;;;;2.70;0.80;;;;;;;29.95;36.34;99016.30;109879;1286;22056;-60
2023/10/27 10:48:21;;;;;;;4.40;1.20;;;;;;;30.00;36.85;99014.88;109908;1287;21863;-60
2023/10/27 10:50:48;;;;;;;2.90;1.20;;;;;;;30.05;35.90;99015.86;109903;1287;21913;-70
2023/10/27 10:53:17;;;;;;;3.50;1.10;;;;;;;30.10;36.38;99013.88;109903;1287;21949;-60
2023/10/27 10:55:45;;;;;;;3.20;1.30;;;;;;;30.14;36.58;99013.20;109912;1287;21925;-60
2023/10/27 10:58:11;;;;;;;4.10;0.80;;;;;;;30.15;36.60;99017.20;109899;1287;21836;-70
2023/10/27 11:00:36;;;;;;;6.00;1.20;;;;;;;29.98;36.29;99019.35;109855;1285;21965;-60
2023/10/27 11:03:06;;;;;;;3.80;0.90;;;;;;;29.77;36.59;99021.04;109918;1287;21960;-71
2023/10/27 11:05:32;;;;;;;4.60;1.20;;;;;;;29.64;36.75;99022.90;109916;1287;21923;-74
2023/10/27 11:07:58;;;;;;;2.60;1.00;;;;;;;29.53;36.51;99017.08;109895;1287;21963;-60
2023/10/27 11:10:24;;;;;;;6.20;1.50;;;;;;;29.36;36.25;99014.27;109897;1287;21936;-63
2023/10/27 11:12:50;;;;;;;6.20;1.40;;;;;;;29.15;36.35;99009.55;109903;1287;21903;-72
2023/10/27 11:15:44;;;;;;;3.20;1.50;;;;;;;28.98;36.94;99009.81;109912;1287;22732;-60
2023/10/27 11:18:10;;;;;;;4.40;1.30;;;;;;;28.83;36.81;99007.16;109920;1285;21950;-71
2023/10/27 11:20:37;;;;;;;6.30;1.40;;;;;;;28.69;36.61;99006.13;109900;1287;21936;-71
2023/10/27 11:23:11;;;;;;;4.90;1.50;;;;;;;28.59;36.97;99001.83;109930;1287;21965;-71